sensor_id;sensor_type;location;lat;lon;timestamp;P1;durP1;ratioP1;P2;durP2;ratioP2
4355;SDS011;64374;51.482;7.408;2022-12-29T00:01:08;1.23;;;1.07;;
4355;SDS011;64374;51.482;7.408;2022-12-29T00:03:37;1.20;;;1.00;;
4355;SDS011;64374;51.482;7.408;2022-12-29T00:06:05;1.53;;;1.00;;
4355;SDS011;64374;51.482;7.408;2022-12-29T00:08:35;1.20;;;1.00;;
4355;SDS011;64374;51.482;7.408;2022-12-29T00:11:10;1.10;;;1.00;;
4355;SDS011;64374;51.482;7.408;2022-12-29T00:13:39;2.70;;;1.10;;
4355;SDS011;64374;51.482;7.408;2022-12-29T00:16:26;2.07;;;0.90;;
4355;SDS011;64374;51.482;7.408;2022-12-29T00:18:54;0.80;;;0.80;;
4355;SDS011;64374;51.482;7.408;2022-12-29T00:21:23;1.83;;;1.03;;
4355;SDS011;64374;51.482;7.408;2022-12-29T00:24:16;2.70;;;0.73;;
4355;SDS011;64374;51.482;7.408;2022-12-29T00:27:09;1.43;;;0.90;;
4355;SDS011;64374;51.482;7.408;2022-12-29T00:29:57;1.67;;;0.97;;
4355;SDS011;64374;51.482;7.408;2022-12-29T00:32:43;1.90;;;1.00;;
4355;SDS011;64374;51.482;7.408;2022-12-29T00:35:30;1.90;;;0.70;;
4355;SDS011;64374;51.482;7.408;2022-12-29T00:38:10;0.80;;;0.80;;
4355;SDS011;64374;51.482;7.408;2022-12-29T00:41:00;0.87;;;0.87;;
4355;SDS011;64374;51.482;7.408;2022-12-29T00:43:46;0.93;;;0.80;;
4355;SDS011;64374;51.482;7.408;2022-12-29T00:46:33;0.80;;;0.80;;
4355;SDS011;64374;51.482;7.408;2022-12-29T00:49:06;1.80;;;0.73;;
4355;SDS011;64374;51.482;7.408;2022-12-29T00:51:55;0.80;;;0.80;;
4355;SDS011;64374;51.482;7.408;2022-12-29T00:54:27;0.70;;;0.60;;
4355;SDS011;64374;51.482;7.408;2022-12-29T00:57:04;0.93;;;0.83;;
4355;SDS011;64374;51.482;7.408;2022-12-29T00:59:37;1.10;;;1.00;;
4355;SDS011;64374;51.482;7.408;2022-12-29T01:02:07;0.83;;;0.73;;
4355;SDS011;64374;51.482;7.408;2022-12-29T01:04:36;2.53;;;1.10;;
4355;SDS011;64374;51.482;7.408;2022-12-29T01:07:05;0.60;;;0.60;;
4355;SDS011;64374;51.482;7.408;2022-12-29T01:09:36;0.70;;;0.70;;
4355;SDS011;64374;51.482;7.408;2022-12-29T01:12:34;0.70;;;0.70;;
4355;SDS011;64374;51.482;7.408;2022-12-29T01:15:12;0.90;;;0.77;;
4355;SDS011;64374;51.482;7.408;2022-12-29T01:17:47;0.60;;;0.60;;
4355;SDS011;64374;51.482;7.408;2022-12-29T01:20:16;0.87;;;0.60;;
4355;SDS011;64374;51.482;7.408;2022-12-29T01:22:44;0.60;;;0.60;;
4355;SDS011;64374;51.482;7.408;2022-12-29T01:25:13;0.70;;;0.70;;
4355;SDS011;64374;51.482;7.408;2022-12-29T01:27:45;0.60;;;0.60;;
4355;SDS011;64374;51.482;7.408;2022-12-29T01:30:16;0.60;;;0.60;;
4355;SDS011;64374;51.482;7.408;2022-12-29T01:32:47;0.70;;;0.70;;
4355;SDS011;64374;51.482;7.408;2022-12-29T01:35:17;0.90;;;0.60;;
4355;SDS011;64374;51.482;7.408;2022-12-29T01:37:46;1.50;;;0.90;;
4355;SDS011;64374;51.482;7.408;2022-12-29T01:40:17;0.60;;;0.60;;
4355;SDS011;64374;51.482;7.408;2022-12-29T01:42:47;1.27;;;0.60;;
4355;SDS011;64374;51.482;7.408;2022-12-29T01:45:16;0.80;;;0.80;;
4355;SDS011;64374;51.482;7.408;2022-12-29T01:47:46;1.43;;;0.60;;
4355;SDS011;64374;51.482;7.408;2022-12-29T01:50:21;0.60;;;0.60;;
4355;SDS011;64374;51.482;7.408;2022-12-29T01:52:54;0.70;;;0.70;;
4355;SDS011;64374;51.482;7.408;2022-12-29T01:55:33;0.60;;;0.50;;
4355;SDS011;64374;51.482;7.408;2022-12-29T01:58:15;0.70;;;0.70;;
4355;SDS011;64374;51.482;7.408;2022-12-29T02:00:50;6.67;;;0.93;;
4355;SDS011;64374;51.482;7.408;2022-12-29T02:03:22;0.50;;;0.50;;
4355;SDS011;64374;51.482;7.408;2022-12-29T02:05:54;0.80;;;0.60;;
4355;SDS011;64374;51.482;7.408;2022-12-29T02:08:27;0.80;;;0.70;;
4355;SDS011;64374;51.482;7.408;2022-12-29T02:10:58;0.73;;;0.73;;
4355;SDS011;64374;51.482;7.408;2022-12-29T02:13:29;0.87;;;0.70;;
4355;SDS011;64374;51.482;7.408;2022-12-29T02:16:00;0.60;;;0.60;;
4355;SDS011;64374;51.482;7.408;2022-12-29T02:18:39;0.60;;;0.60;;
4355;SDS011;64374;51.482;7.408;2022-12-29T02:27:36;0.80;;;0.80;;
4355;SDS011;64374;51.482;7.408;2022-12-29T02:30:38;0.60;;;0.60;;
4355;SDS011;64374;51.482;7.408;2022-12-29T02:33:13;0.50;;;0.50;;
4355;SDS011;64374;51.482;7.408;2022-12-29T02:35:52;0.63;;;0.63;;
4355;SDS011;64374;51.482;7.408;2022-12-29T02:38:34;0.60;;;0.60;;
4355;SDS011;64374;51.482;7.408;2022-12-29T02:41:16;0.70;;;0.60;;
4355;SDS011;64374;51.482;7.408;2022-12-29T02:43:54;0.60;;;0.60;;
4355;SDS011;64374;51.482;7.408;2022-12-29T02:46:31;0.50;;;0.50;;
4355;SDS011;64374;51.482;7.408;2022-12-29T02:49:06;0.60;;;0.60;;
4355;SDS011;64374;51.482;7.408;2022-12-29T02:51:44;0.50;;;0.50;;
4355;SDS011;64374;51.482;7.408;2022-12-29T02:54:24;3.90;;;0.70;;
4355;SDS011;64374;51.482;7.408;2022-12-29T02:57:13;0.93;;;0.70;;
4355;SDS011;64374;51.482;7.408;2022-12-29T02:59:46;0.83;;;0.70;;
4355;SDS011;64374;51.482;7.408;2022-12-29T03:02:24;0.70;;;0.70;;
4355;SDS011;64374;51.482;7.408;2022-12-29T03:05:07;1.73;;;0.77;;
4355;SDS011;64374;51.482;7.408;2022-12-29T03:07:57;1.57;;;0.60;;
4355;SDS011;64374;51.482;7.408;2022-12-29T03:10:31;1.83;;;0.63;;
4355;SDS011;64374;51.482;7.408;2022-12-29T03:13:14;0.60;;;0.60;;
4355;SDS011;64374;51.482;7.408;2022-12-29T03:16:12;0.73;;;0.50;;
4355;SDS011;64374;51.482;7.408;2022-12-29T03:18:56;1.23;;;0.73;;
4355;SDS011;64374;51.482;7.408;2022-12-29T03:21:31;1.27;;;0.70;;
4355;SDS011;64374;51.482;7.408;2022-12-29T03:24:30;0.97;;;0.70;;
4355;SDS011;64374;51.482;7.408;2022-12-29T03:27:03;1.07;;;0.60;;
4355;SDS011;64374;51.482;7.408;2022-12-29T03:29:39;0.80;;;0.80;;
4355;SDS011;64374;51.482;7.408;2022-12-29T03:32:11;0.93;;;0.83;;
4355;SDS011;64374;51.482;7.408;2022-12-29T03:34:58;1.87;;;0.80;;
4355;SDS011;64374;51.482;7.408;2022-12-29T03:37:29;0.80;;;0.70;;
4355;SDS011;64374;51.482;7.408;2022-12-29T03:40:07;2.00;;;0.90;;
4355;SDS011;64374;51.482;7.408;2022-12-29T03:42:39;1.57;;;0.70;;
4355;SDS011;64374;51.482;7.408;2022-12-29T03:45:11;2.00;;;0.70;;
4355;SDS011;64374;51.482;7.408;2022-12-29T03:47:40;0.93;;;0.60;;
4355;SDS011;64374;51.482;7.408;2022-12-29T03:50:15;1.43;;;0.80;;
4355;SDS011;64374;51.482;7.408;2022-12-29T03:52:51;1.90;;;1.00;;
4355;SDS011;64374;51.482;7.408;2022-12-29T03:55:27;1.07;;;0.67;;
4355;SDS011;64374;51.482;7.408;2022-12-29T03:57:55;2.80;;;1.27;;
4355;SDS011;64374;51.482;7.408;2022-12-29T04:00:44;1.43;;;0.97;;
4355;SDS011;64374;51.482;7.408;2022-12-29T04:03:13;0.70;;;0.60;;
4355;SDS011;64374;51.482;7.408;2022-12-29T04:05:45;2.53;;;1.00;;
4355;SDS011;64374;51.482;7.408;2022-12-29T04:08:17;1.67;;;0.70;;
4355;SDS011;64374;51.482;7.408;2022-12-29T04:10:47;0.70;;;0.70;;
4355;SDS011;64374;51.482;7.408;2022-12-29T04:13:22;1.90;;;0.70;;
4355;SDS011;64374;51.482;7.408;2022-12-29T04:15:50;0.67;;;0.67;;
4355;SDS011;64374;51.482;7.408;2022-12-29T04:18:21;0.83;;;0.83;;
4355;SDS011;64374;51.482;7.408;2022-12-29T04:20:52;1.43;;;0.87;;
4355;SDS011;64374;51.482;7.408;2022-12-29T04:23:33;1.03;;;0.73;;
4355;SDS011;64374;51.482;7.408;2022-12-29T04:26:09;1.73;;;0.70;;
4355;SDS011;64374;51.482;7.408;2022-12-29T04:28:57;1.33;;;0.60;;
4355;SDS011;64374;51.482;7.408;2022-12-29T04:31:57;0.70;;;0.70;;
4355;SDS011;64374;51.482;7.408;2022-12-29T04:34:27;0.70;;;0.70;;
4355;SDS011;64374;51.482;7.408;2022-12-29T04:36:57;1.20;;;0.67;;
4355;SDS011;64374;51.482;7.408;2022-12-29T04:39:33;0.80;;;0.77;;
4355;SDS011;64374;51.482;7.408;2022-12-29T04:42:02;0.70;;;0.70;;
4355;SDS011;64374;51.482;7.408;2022-12-29T04:47:41;0.70;;;0.70;;
4355;SDS011;64374;51.482;7.408;2022-12-29T04:50:29;0.60;;;0.60;;
4355;SDS011;64374;51.482;7.408;2022-12-29T04:53:13;0.50;;;0.50;;
4355;SDS011;64374;51.482;7.408;2022-12-29T04:55:42;0.60;;;0.60;;
4355;SDS011;64374;51.482;7.408;2022-12-29T04:58:11;2.00;;;0.67;;
4355;SDS011;64374;51.482;7.408;2022-12-29T05:00:49;1.00;;;0.60;;
4355;SDS011;64374;51.482;7.408;2022-12-29T05:03:28;1.10;;;0.50;;
4355;SDS011;64374;51.482;7.408;2022-12-29T05:05:59;0.93;;;0.60;;
4355;SDS011;64374;51.482;7.408;2022-12-29T05:08:29;0.60;;;0.60;;
4355;SDS011;64374;51.482;7.408;2022-12-29T05:11:01;3.73;;;0.80;;
4355;SDS011;64374;51.482;7.408;2022-12-29T05:13:33;1.73;;;0.80;;
4355;SDS011;64374;51.482;7.408;2022-12-29T05:16:01;0.67;;;0.67;;
4355;SDS011;64374;51.482;7.408;2022-12-29T05:18:32;0.83;;;0.83;;
4355;SDS011;64374;51.482;7.408;2022-12-29T05:21:03;0.67;;;0.60;;
4355;SDS011;64374;51.482;7.408;2022-12-29T05:23:33;0.70;;;0.70;;
4355;SDS011;64374;51.482;7.408;2022-12-29T05:26:05;1.17;;;0.80;;
4355;SDS011;64374;51.482;7.408;2022-12-29T05:28:55;1.17;;;0.70;;
4355;SDS011;64374;51.482;7.408;2022-12-29T05:31:24;7.23;;;1.03;;
4355;SDS011;64374;51.482;7.408;2022-12-29T05:33:52;1.97;;;0.90;;
4355;SDS011;64374;51.482;7.408;2022-12-29T05:36:21;0.73;;;0.70;;
4355;SDS011;64374;51.482;7.408;2022-12-29T05:39:04;0.80;;;0.63;;
4355;SDS011;64374;51.482;7.408;2022-12-29T05:41:35;1.77;;;0.90;;
4355;SDS011;64374;51.482;7.408;2022-12-29T05:44:27;1.67;;;1.10;;
4355;SDS011;64374;51.482;7.408;2022-12-29T05:47:25;2.03;;;0.87;;
4355;SDS011;64374;51.482;7.408;2022-12-29T05:50:12;4.93;;;1.00;;
4355;SDS011;64374;51.482;7.408;2022-12-29T05:53:10;0.93;;;0.80;;
4355;SDS011;64374;51.482;7.408;2022-12-29T05:55:52;2.37;;;1.20;;
4355;SDS011;64374;51.482;7.408;2022-12-29T05:58:20;1.13;;;0.80;;
4355;SDS011;64374;51.482;7.408;2022-12-29T06:00:52;2.80;;;0.90;;
4355;SDS011;64374;51.482;7.408;2022-12-29T06:03:23;1.73;;;0.70;;
4355;SDS011;64374;51.482;7.408;2022-12-29T06:05:53;1.77;;;0.80;;
4355;SDS011;64374;51.482;7.408;2022-12-29T06:08:22;1.70;;;0.80;;
4355;SDS011;64374;51.482;7.408;2022-12-29T06:10:54;1.93;;;0.90;;
4355;SDS011;64374;51.482;7.408;2022-12-29T06:13:30;2.83;;;0.90;;
4355;SDS011;64374;51.482;7.408;2022-12-29T06:15:59;2.43;;;0.87;;
4355;SDS011;64374;51.482;7.408;2022-12-29T06:18:31;3.27;;;0.70;;
4355;SDS011;64374;51.482;7.408;2022-12-29T06:20:59;1.03;;;0.93;;
4355;SDS011;64374;51.482;7.408;2022-12-29T06:23:28;1.17;;;0.80;;
4355;SDS011;64374;51.482;7.408;2022-12-29T06:25:59;0.70;;;0.70;;
4355;SDS011;64374;51.482;7.408;2022-12-29T06:28:29;1.37;;;0.87;;
4355;SDS011;64374;51.482;7.408;2022-12-29T06:30:58;1.53;;;0.80;;
4355;SDS011;64374;51.482;7.408;2022-12-29T06:33:29;1.07;;;0.97;;
4355;SDS011;64374;51.482;7.408;2022-12-29T06:35:58;1.47;;;0.83;;
4355;SDS011;64374;51.482;7.408;2022-12-29T06:38:30;1.87;;;1.00;;
4355;SDS011;64374;51.482;7.408;2022-12-29T06:41:02;3.07;;;0.93;;
4355;SDS011;64374;51.482;7.408;2022-12-29T06:43:33;2.73;;;0.90;;
4355;SDS011;64374;51.482;7.408;2022-12-29T06:46:18;1.10;;;1.00;;
4355;SDS011;64374;51.482;7.408;2022-12-29T06:48:50;0.83;;;0.80;;
4355;SDS011;64374;51.482;7.408;2022-12-29T06:51:19;4.67;;;0.90;;
4355;SDS011;64374;51.482;7.408;2022-12-29T06:53:53;2.20;;;0.90;;
4355;SDS011;64374;51.482;7.408;2022-12-29T06:56:23;1.40;;;1.13;;
4355;SDS011;64374;51.482;7.408;2022-12-29T06:58:51;2.50;;;1.00;;
4355;SDS011;64374;51.482;7.408;2022-12-29T07:01:19;4.10;;;1.17;;
4355;SDS011;64374;51.482;7.408;2022-12-29T07:03:48;4.00;;;1.20;;
4355;SDS011;64374;51.482;7.408;2022-12-29T07:06:17;3.20;;;1.50;;
4355;SDS011;64374;51.482;7.408;2022-12-29T07:08:45;2.20;;;1.30;;
4355;SDS011;64374;51.482;7.408;2022-12-29T07:11:29;3.30;;;1.03;;
4355;SDS011;64374;51.482;7.408;2022-12-29T07:13:58;1.90;;;0.80;;
4355;SDS011;64374;51.482;7.408;2022-12-29T07:16:27;2.13;;;0.93;;
4355;SDS011;64374;51.482;7.408;2022-12-29T07:18:56;1.67;;;0.70;;
4355;SDS011;64374;51.482;7.408;2022-12-29T07:21:26;1.13;;;1.00;;
4355;SDS011;64374;51.482;7.408;2022-12-29T07:23:57;2.40;;;0.90;;
4355;SDS011;64374;51.482;7.408;2022-12-29T07:26:30;1.80;;;0.87;;
4355;SDS011;64374;51.482;7.408;2022-12-29T07:29:15;2.10;;;0.90;;
4355;SDS011;64374;51.482;7.408;2022-12-29T07:31:44;1.77;;;0.80;;
4355;SDS011;64374;51.482;7.408;2022-12-29T07:34:12;1.87;;;0.80;;
4355;SDS011;64374;51.482;7.408;2022-12-29T07:36:41;3.67;;;1.20;;
4355;SDS011;64374;51.482;7.408;2022-12-29T07:39:12;1.27;;;0.83;;
4355;SDS011;64374;51.482;7.408;2022-12-29T07:41:42;2.97;;;0.90;;
4355;SDS011;64374;51.482;7.408;2022-12-29T07:44:17;2.47;;;1.03;;
4355;SDS011;64374;51.482;7.408;2022-12-29T07:47:06;4.33;;;1.10;;
4355;SDS011;64374;51.482;7.408;2022-12-29T07:49:35;3.80;;;0.90;;
4355;SDS011;64374;51.482;7.408;2022-12-29T07:52:06;2.77;;;1.17;;
4355;SDS011;64374;51.482;7.408;2022-12-29T07:54:36;1.80;;;0.90;;
4355;SDS011;64374;51.482;7.408;2022-12-29T07:57:13;3.23;;;0.80;;
4355;SDS011;64374;51.482;7.408;2022-12-29T07:59:41;3.80;;;1.10;;
4355;SDS011;64374;51.482;7.408;2022-12-29T08:02:10;5.17;;;1.80;;
4355;SDS011;64374;51.482;7.408;2022-12-29T08:04:39;5.17;;;1.10;;
4355;SDS011;64374;51.482;7.408;2022-12-29T08:07:10;3.40;;;1.10;;
4355;SDS011;64374;51.482;7.408;2022-12-29T08:09:41;6.63;;;1.10;;
4355;SDS011;64374;51.482;7.408;2022-12-29T08:12:09;2.83;;;1.10;;
4355;SDS011;64374;51.482;7.408;2022-12-29T08:14:39;4.60;;;1.27;;
4355;SDS011;64374;51.482;7.408;2022-12-29T08:17:08;1.50;;;1.17;;
4355;SDS011;64374;51.482;7.408;2022-12-29T08:19:36;4.70;;;1.23;;
4355;SDS011;64374;51.482;7.408;2022-12-29T08:22:12;2.83;;;1.50;;
4355;SDS011;64374;51.482;7.408;2022-12-29T08:24:51;3.33;;;1.00;;
4355;SDS011;64374;51.482;7.408;2022-12-29T08:27:27;2.03;;;1.20;;
4355;SDS011;64374;51.482;7.408;2022-12-29T08:30:00;3.10;;;1.50;;
4355;SDS011;64374;51.482;7.408;2022-12-29T08:32:29;4.40;;;1.20;;
4355;SDS011;64374;51.482;7.408;2022-12-29T08:34:57;5.57;;;1.30;;
4355;SDS011;64374;51.482;7.408;2022-12-29T08:37:26;3.83;;;1.07;;
4355;SDS011;64374;51.482;7.408;2022-12-29T08:39:56;4.20;;;1.03;;
4355;SDS011;64374;51.482;7.408;2022-12-29T08:42:26;1.97;;;1.40;;
4355;SDS011;64374;51.482;7.408;2022-12-29T08:45:18;7.50;;;1.40;;
4355;SDS011;64374;51.482;7.408;2022-12-29T08:47:47;4.47;;;1.13;;
4355;SDS011;64374;51.482;7.408;2022-12-29T08:50:18;4.47;;;1.87;;
4355;SDS011;64374;51.482;7.408;2022-12-29T08:52:46;3.23;;;1.33;;
4355;SDS011;64374;51.482;7.408;2022-12-29T08:55:29;4.67;;;1.17;;
4355;SDS011;64374;51.482;7.408;2022-12-29T08:58:02;7.33;;;1.70;;
4355;SDS011;64374;51.482;7.408;2022-12-29T09:00:42;4.33;;;1.10;;
4355;SDS011;64374;51.482;7.408;2022-12-29T09:03:10;3.83;;;1.30;;
4355;SDS011;64374;51.482;7.408;2022-12-29T09:05:39;5.23;;;1.33;;
4355;SDS011;64374;51.482;7.408;2022-12-29T09:08:15;5.47;;;1.47;;
4355;SDS011;64374;51.482;7.408;2022-12-29T09:10:52;3.20;;;1.47;;
4355;SDS011;64374;51.482;7.408;2022-12-29T09:13:20;2.60;;;0.90;;
4355;SDS011;64374;51.482;7.408;2022-12-29T09:15:58;3.77;;;1.70;;
4355;SDS011;64374;51.482;7.408;2022-12-29T09:18:28;5.77;;;1.93;;
4355;SDS011;64374;51.482;7.408;2022-12-29T09:21:00;5.50;;;1.20;;
4355;SDS011;64374;51.482;7.408;2022-12-29T09:23:32;1.60;;;1.03;;
4355;SDS011;64374;51.482;7.408;2022-12-29T09:26:02;4.60;;;1.57;;
4355;SDS011;64374;51.482;7.408;2022-12-29T09:28:34;3.90;;;1.53;;
4355;SDS011;64374;51.482;7.408;2022-12-29T09:31:07;4.30;;;1.83;;
4355;SDS011;64374;51.482;7.408;2022-12-29T09:33:35;6.10;;;1.40;;
4355;SDS011;64374;51.482;7.408;2022-12-29T09:36:08;2.93;;;1.60;;
4355;SDS011;64374;51.482;7.408;2022-12-29T09:38:38;4.20;;;1.33;;
4355;SDS011;64374;51.482;7.408;2022-12-29T09:41:11;3.70;;;1.40;;
4355;SDS011;64374;51.482;7.408;2022-12-29T09:43:59;3.47;;;1.50;;
4355;SDS011;64374;51.482;7.408;2022-12-29T09:46:37;3.80;;;1.20;;
4355;SDS011;64374;51.482;7.408;2022-12-29T09:49:09;11.07;;;2.20;;
4355;SDS011;64374;51.482;7.408;2022-12-29T09:51:49;3.57;;;1.33;;
4355;SDS011;64374;51.482;7.408;2022-12-29T09:54:32;1.83;;;1.00;;
4355;SDS011;64374;51.482;7.408;2022-12-29T09:57:18;3.80;;;1.17;;
4355;SDS011;64374;51.482;7.408;2022-12-29T09:59:52;4.10;;;1.53;;
4355;SDS011;64374;51.482;7.408;2022-12-29T10:02:31;6.90;;;1.90;;
4355;SDS011;64374;51.482;7.408;2022-12-29T10:05:15;4.07;;;1.30;;
4355;SDS011;64374;51.482;7.408;2022-12-29T10:07:55;4.40;;;1.53;;
4355;SDS011;64374;51.482;7.408;2022-12-29T10:10:45;4.80;;;2.20;;
4355;SDS011;64374;51.482;7.408;2022-12-29T10:13:28;5.10;;;1.40;;
4355;SDS011;64374;51.482;7.408;2022-12-29T10:16:11;7.70;;;1.73;;
4355;SDS011;64374;51.482;7.408;2022-12-29T10:18:55;3.07;;;1.53;;
4355;SDS011;64374;51.482;7.408;2022-12-29T10:21:45;2.87;;;1.20;;
4355;SDS011;64374;51.482;7.408;2022-12-29T10:24:26;5.03;;;1.50;;
4355;SDS011;64374;51.482;7.408;2022-12-29T10:27:01;9.93;;;2.00;;
4355;SDS011;64374;51.482;7.408;2022-12-29T10:29:32;6.80;;;1.87;;
4355;SDS011;64374;51.482;7.408;2022-12-29T10:32:23;2.73;;;1.40;;
4355;SDS011;64374;51.482;7.408;2022-12-29T10:35:00;3.17;;;1.20;;
4355;SDS011;64374;51.482;7.408;2022-12-29T10:37:34;9.73;;;2.03;;
4355;SDS011;64374;51.482;7.408;2022-12-29T10:40:15;5.20;;;1.63;;
4355;SDS011;64374;51.482;7.408;2022-12-29T10:42:49;8.33;;;1.57;;
4355;SDS011;64374;51.482;7.408;2022-12-29T10:45:22;1.83;;;1.13;;
4355;SDS011;64374;51.482;7.408;2022-12-29T10:47:59;4.27;;;1.40;;
4355;SDS011;64374;51.482;7.408;2022-12-29T10:50:34;4.40;;;1.60;;
4355;SDS011;64374;51.482;7.408;2022-12-29T10:53:04;7.63;;;2.07;;
4355;SDS011;64374;51.482;7.408;2022-12-29T10:55:35;4.30;;;1.90;;
4355;SDS011;64374;51.482;7.408;2022-12-29T10:58:05;5.87;;;1.40;;
4355;SDS011;64374;51.482;7.408;2022-12-29T11:00:36;2.93;;;1.20;;
4355;SDS011;64374;51.482;7.408;2022-12-29T11:03:14;10.87;;;1.93;;
4355;SDS011;64374;51.482;7.408;2022-12-29T11:06:13;8.07;;;2.10;;
4355;SDS011;64374;51.482;7.408;2022-12-29T11:08:51;2.17;;;1.37;;
4355;SDS011;64374;51.482;7.408;2022-12-29T11:11:24;5.80;;;1.40;;
4355;SDS011;64374;51.482;7.408;2022-12-29T11:13:58;8.97;;;1.73;;
4355;SDS011;64374;51.482;7.408;2022-12-29T11:16:34;4.17;;;1.90;;
4355;SDS011;64374;51.482;7.408;2022-12-29T11:19:04;7.20;;;1.87;;
4355;SDS011;64374;51.482;7.408;2022-12-29T11:21:35;5.37;;;1.70;;
4355;SDS011;64374;51.482;7.408;2022-12-29T11:24:18;6.23;;;1.53;;
4355;SDS011;64374;51.482;7.408;2022-12-29T11:26:49;6.80;;;1.83;;
4355;SDS011;64374;51.482;7.408;2022-12-29T11:29:23;6.60;;;1.50;;
4355;SDS011;64374;51.482;7.408;2022-12-29T11:31:54;2.73;;;1.60;;
4355;SDS011;64374;51.482;7.408;2022-12-29T11:34:25;8.07;;;1.93;;
4355;SDS011;64374;51.482;7.408;2022-12-29T11:37:00;11.27;;;1.80;;
4355;SDS011;64374;51.482;7.408;2022-12-29T11:39:32;8.40;;;2.43;;
4355;SDS011;64374;51.482;7.408;2022-12-29T11:42:05;5.60;;;1.90;;
4355;SDS011;64374;51.482;7.408;2022-12-29T11:44:41;4.20;;;1.13;;
4355;SDS011;64374;51.482;7.408;2022-12-29T11:47:13;7.97;;;1.90;;
4355;SDS011;64374;51.482;7.408;2022-12-29T11:49:51;6.90;;;1.60;;
4355;SDS011;64374;51.482;7.408;2022-12-29T11:52:25;9.43;;;2.83;;
4355;SDS011;64374;51.482;7.408;2022-12-29T11:54:57;8.57;;;2.13;;
4355;SDS011;64374;51.482;7.408;2022-12-29T11:57:26;19.60;;;1.97;;
4355;SDS011;64374;51.482;7.408;2022-12-29T11:59:58;5.37;;;1.67;;
4355;SDS011;64374;51.482;7.408;2022-12-29T12:02:41;9.20;;;1.80;;
4355;SDS011;64374;51.482;7.408;2022-12-29T12:05:19;6.10;;;2.07;;
4355;SDS011;64374;51.482;7.408;2022-12-29T12:07:59;8.27;;;1.80;;
4355;SDS011;64374;51.482;7.408;2022-12-29T12:10:37;3.43;;;1.40;;
4355;SDS011;64374;51.482;7.408;2022-12-29T12:13:22;6.27;;;1.83;;
4355;SDS011;64374;51.482;7.408;2022-12-29T12:15:57;5.77;;;1.50;;
4355;SDS011;64374;51.482;7.408;2022-12-29T12:18:32;13.60;;;2.70;;
4355;SDS011;64374;51.482;7.408;2022-12-29T12:21:09;4.60;;;1.40;;
4355;SDS011;64374;51.482;7.408;2022-12-29T12:26:55;8.23;;;1.97;;
4355;SDS011;64374;51.482;7.408;2022-12-29T12:29:31;5.97;;;1.60;;
4355;SDS011;64374;51.482;7.408;2022-12-29T12:32:04;5.13;;;1.37;;
4355;SDS011;64374;51.482;7.408;2022-12-29T12:34:42;10.10;;;1.97;;
4355;SDS011;64374;51.482;7.408;2022-12-29T12:37:22;4.93;;;1.53;;
4355;SDS011;64374;51.482;7.408;2022-12-29T12:40:19;7.30;;;1.87;;
4355;SDS011;64374;51.482;7.408;2022-12-29T12:42:59;8.43;;;1.70;;
4355;SDS011;64374;51.482;7.408;2022-12-29T12:45:43;7.10;;;1.87;;
4355;SDS011;64374;51.482;7.408;2022-12-29T12:48:29;4.53;;;1.20;;
4355;SDS011;64374;51.482;7.408;2022-12-29T12:51:15;6.30;;;1.40;;
4355;SDS011;64374;51.482;7.408;2022-12-29T12:53:51;10.23;;;1.60;;
4355;SDS011;64374;51.482;7.408;2022-12-29T12:56:47;5.70;;;2.33;;
4355;SDS011;64374;51.482;7.408;2022-12-29T12:59:32;7.87;;;1.80;;
4355;SDS011;64374;51.482;7.408;2022-12-29T13:02:12;4.30;;;1.87;;
4355;SDS011;64374;51.482;7.408;2022-12-29T13:04:56;6.63;;;2.47;;
4355;SDS011;64374;51.482;7.408;2022-12-29T13:07:37;7.10;;;1.73;;
4355;SDS011;64374;51.482;7.408;2022-12-29T13:10:29;9.10;;;2.10;;
4355;SDS011;64374;51.482;7.408;2022-12-29T13:13:10;9.80;;;1.90;;
4355;SDS011;64374;51.482;7.408;2022-12-29T13:15:57;5.53;;;1.63;;
4355;SDS011;64374;51.482;7.408;2022-12-29T13:18:43;7.93;;;2.20;;
4355;SDS011;64374;51.482;7.408;2022-12-29T13:21:24;3.47;;;1.50;;
4355;SDS011;64374;51.482;7.408;2022-12-29T13:24:03;7.80;;;1.30;;
4355;SDS011;64374;51.482;7.408;2022-12-29T13:26:44;8.43;;;1.90;;
4355;SDS011;64374;51.482;7.408;2022-12-29T13:29:29;8.03;;;1.50;;
4355;SDS011;64374;51.482;7.408;2022-12-29T13:32:05;5.40;;;1.50;;
4355;SDS011;64374;51.482;7.408;2022-12-29T13:35:08;2.63;;;1.43;;
4355;SDS011;64374;51.482;7.408;2022-12-29T13:37:49;2.93;;;1.57;;
4355;SDS011;64374;51.482;7.408;2022-12-29T13:40:22;6.30;;;1.63;;
4355;SDS011;64374;51.482;7.408;2022-12-29T13:42:54;8.43;;;1.87;;
4355;SDS011;64374;51.482;7.408;2022-12-29T13:45:26;4.40;;;1.77;;
4355;SDS011;64374;51.482;7.408;2022-12-29T13:48:00;6.27;;;2.10;;
4355;SDS011;64374;51.482;7.408;2022-12-29T13:50:41;4.20;;;1.60;;
4355;SDS011;64374;51.482;7.408;2022-12-29T13:53:15;4.60;;;1.37;;
4355;SDS011;64374;51.482;7.408;2022-12-29T13:55:58;6.47;;;1.63;;
4355;SDS011;64374;51.482;7.408;2022-12-29T13:58:31;4.67;;;2.47;;
4355;SDS011;64374;51.482;7.408;2022-12-29T14:01:10;8.83;;;2.33;;
4355;SDS011;64374;51.482;7.408;2022-12-29T14:03:47;2.73;;;1.30;;
4355;SDS011;64374;51.482;7.408;2022-12-29T14:06:23;6.20;;;1.60;;
4355;SDS011;64374;51.482;7.408;2022-12-29T14:08:54;5.00;;;1.23;;
4355;SDS011;64374;51.482;7.408;2022-12-29T14:11:28;7.60;;;2.90;;
4355;SDS011;64374;51.482;7.408;2022-12-29T14:14:10;6.43;;;1.67;;
4355;SDS011;64374;51.482;7.408;2022-12-29T14:16:42;7.17;;;1.50;;
4355;SDS011;64374;51.482;7.408;2022-12-29T14:19:13;12.43;;;1.43;;
4355;SDS011;64374;51.482;7.408;2022-12-29T14:21:50;4.87;;;1.67;;
4355;SDS011;64374;51.482;7.408;2022-12-29T14:24:39;9.13;;;1.60;;
4355;SDS011;64374;51.482;7.408;2022-12-29T14:33:29;12.27;;;2.30;;
4355;SDS011;64374;51.482;7.408;2022-12-29T14:36:21;6.67;;;1.83;;
4355;SDS011;64374;51.482;7.408;2022-12-29T14:39:00;9.43;;;2.10;;
4355;SDS011;64374;51.482;7.408;2022-12-29T14:41:38;10.97;;;1.57;;
4355;SDS011;64374;51.482;7.408;2022-12-29T14:44:14;3.70;;;1.63;;
4355;SDS011;64374;51.482;7.408;2022-12-29T14:46:54;5.03;;;1.80;;
4355;SDS011;64374;51.482;7.408;2022-12-29T14:49:28;4.60;;;1.93;;
4355;SDS011;64374;51.482;7.408;2022-12-29T14:52:12;9.10;;;1.47;;
4355;SDS011;64374;51.482;7.408;2022-12-29T14:54:50;5.43;;;1.30;;
4355;SDS011;64374;51.482;7.408;2022-12-29T14:57:34;8.60;;;1.40;;
4355;SDS011;64374;51.482;7.408;2022-12-29T15:00:07;7.07;;;1.57;;
4355;SDS011;64374;51.482;7.408;2022-12-29T15:02:46;3.43;;;1.70;;
4355;SDS011;64374;51.482;7.408;2022-12-29T15:05:31;4.07;;;1.73;;
4355;SDS011;64374;51.482;7.408;2022-12-29T15:08:04;2.87;;;1.10;;
4355;SDS011;64374;51.482;7.408;2022-12-29T15:10:40;8.03;;;1.50;;
4355;SDS011;64374;51.482;7.408;2022-12-29T15:13:14;10.10;;;1.97;;
4355;SDS011;64374;51.482;7.408;2022-12-29T15:15:47;3.10;;;1.60;;
4355;SDS011;64374;51.482;7.408;2022-12-29T15:18:22;3.63;;;1.43;;
4355;SDS011;64374;51.482;7.408;2022-12-29T15:20:57;7.10;;;2.10;;
4355;SDS011;64374;51.482;7.408;2022-12-29T15:23:28;5.27;;;1.57;;
4355;SDS011;64374;51.482;7.408;2022-12-29T15:25:59;2.17;;;1.10;;
4355;SDS011;64374;51.482;7.408;2022-12-29T15:28:37;6.43;;;1.50;;
4355;SDS011;64374;51.482;7.408;2022-12-29T15:31:10;3.13;;;1.60;;
4355;SDS011;64374;51.482;7.408;2022-12-29T15:33:41;2.63;;;1.63;;
4355;SDS011;64374;51.482;7.408;2022-12-29T15:36:19;2.63;;;1.20;;
4355;SDS011;64374;51.482;7.408;2022-12-29T15:38:53;3.20;;;1.37;;
4355;SDS011;64374;51.482;7.408;2022-12-29T15:41:25;2.47;;;1.17;;
4355;SDS011;64374;51.482;7.408;2022-12-29T15:44:00;4.47;;;1.70;;
4355;SDS011;64374;51.482;7.408;2022-12-29T15:46:38;3.60;;;1.60;;
4355;SDS011;64374;51.482;7.408;2022-12-29T15:49:08;4.40;;;1.97;;
4355;SDS011;64374;51.482;7.408;2022-12-29T15:51:38;4.13;;;1.23;;
4355;SDS011;64374;51.482;7.408;2022-12-29T15:54:12;3.43;;;1.47;;
4355;SDS011;64374;51.482;7.408;2022-12-29T15:56:51;11.77;;;2.23;;
4355;SDS011;64374;51.482;7.408;2022-12-29T15:59:23;8.67;;;1.50;;
4355;SDS011;64374;51.482;7.408;2022-12-29T16:01:53;5.57;;;2.00;;
4355;SDS011;64374;51.482;7.408;2022-12-29T16:04:23;7.90;;;2.13;;
4355;SDS011;64374;51.482;7.408;2022-12-29T16:06:58;13.03;;;2.10;;
4355;SDS011;64374;51.482;7.408;2022-12-29T16:09:29;4.00;;;1.33;;
4355;SDS011;64374;51.482;7.408;2022-12-29T16:11:59;6.10;;;2.07;;